sensor_id;sensor_type;location;lat;lon;timestamp;P1;durP1;ratioP1;P2;durP2;ratioP2
56999;SDS011;42891;50.006;21.964;2022-11-20T00:01:46;74.57;;;38.23;;
56999;SDS011;42891;50.006;21.964;2022-11-20T00:05:46;84.53;;;42.30;;
56999;SDS011;42891;50.006;21.964;2022-11-20T00:09:47;80.22;;;40.25;;
56999;SDS011;42891;50.006;21.964;2022-11-20T00:13:48;82.65;;;40.80;;
56999;SDS011;42891;50.006;21.964;2022-11-20T00:17:50;78.32;;;37.20;;
56999;SDS011;42891;50.006;21.964;2022-11-20T00:21:50;79.03;;;40.97;;
56999;SDS011;42891;50.006;21.964;2022-11-20T00:25:55;69.50;;;35.08;;
56999;SDS011;42891;50.006;21.964;2022-11-20T00:29:55;73.22;;;36.80;;
56999;SDS011;42891;50.006;21.964;2022-11-20T00:33:56;69.78;;;34.83;;
56999;SDS011;42891;50.006;21.964;2022-11-20T00:37:56;72.47;;;35.00;;
56999;SDS011;42891;50.006;21.964;2022-11-20T00:41:56;73.43;;;35.13;;
56999;SDS011;42891;50.006;21.964;2022-11-20T00:46:06;63.00;;;33.20;;
56999;SDS011;42891;50.006;21.964;2022-11-20T00:50:08;65.90;;;34.38;;
56999;SDS011;42891;50.006;21.964;2022-11-20T00:54:08;59.83;;;32.90;;
56999;SDS011;42891;50.006;21.964;2022-11-20T00:58:09;67.68;;;35.08;;
56999;SDS011;42891;50.006;21.964;2022-11-20T01:02:09;76.30;;;37.10;;
56999;SDS011;42891;50.006;21.964;2022-11-20T01:10:14;73.78;;;35.42;;
56999;SDS011;42891;50.006;21.964;2022-11-20T01:14:16;62.40;;;31.88;;
56999;SDS011;42891;50.006;21.964;2022-11-20T01:18:18;59.45;;;32.13;;
56999;SDS011;42891;50.006;21.964;2022-11-20T01:22:18;59.88;;;30.58;;
56999;SDS011;42891;50.006;21.964;2022-11-20T01:26:20;57.35;;;30.65;;
56999;SDS011;42891;50.006;21.964;2022-11-20T01:30:23;54.83;;;28.90;;
56999;SDS011;42891;50.006;21.964;2022-11-20T01:34:24;56.05;;;29.10;;
56999;SDS011;42891;50.006;21.964;2022-11-20T01:38:24;56.10;;;31.48;;
56999;SDS011;42891;50.006;21.964;2022-11-20T01:42:25;58.23;;;29.80;;
56999;SDS011;42891;50.006;21.964;2022-11-20T01:46:55;59.05;;;29.83;;
56999;SDS011;42891;50.006;21.964;2022-11-20T01:51:01;54.78;;;28.35;;
56999;SDS011;42891;50.006;21.964;2022-11-20T01:55:05;56.67;;;29.98;;
56999;SDS011;42891;50.006;21.964;2022-11-20T01:59:09;58.40;;;29.52;;
56999;SDS011;42891;50.006;21.964;2022-11-20T02:03:15;55.15;;;29.52;;
56999;SDS011;42891;50.006;21.964;2022-11-20T02:07:16;53.35;;;29.65;;
56999;SDS011;42891;50.006;21.964;2022-11-20T02:11:17;61.50;;;32.15;;
56999;SDS011;42891;50.006;21.964;2022-11-20T02:15:18;69.95;;;33.28;;
56999;SDS011;42891;50.006;21.964;2022-11-20T02:19:22;80.15;;;37.25;;
56999;SDS011;42891;50.006;21.964;2022-11-20T02:23:38;72.03;;;34.08;;
56999;SDS011;42891;50.006;21.964;2022-11-20T02:27:43;74.18;;;34.40;;
56999;SDS011;42891;50.006;21.964;2022-11-20T02:31:44;66.45;;;31.83;;
56999;SDS011;42891;50.006;21.964;2022-11-20T02:35:45;62.55;;;30.60;;
56999;SDS011;42891;50.006;21.964;2022-11-20T02:39:47;57.78;;;28.63;;
56999;SDS011;42891;50.006;21.964;2022-11-20T02:43:48;54.47;;;28.55;;
56999;SDS011;42891;50.006;21.964;2022-11-20T02:47:49;49.63;;;26.73;;
56999;SDS011;42891;50.006;21.964;2022-11-20T02:51:49;54.80;;;28.77;;
56999;SDS011;42891;50.006;21.964;2022-11-20T02:55:50;52.50;;;28.30;;
56999;SDS011;42891;50.006;21.964;2022-11-20T02:59:50;55.78;;;29.10;;
56999;SDS011;42891;50.006;21.964;2022-11-20T03:03:50;51.27;;;26.43;;
56999;SDS011;42891;50.006;21.964;2022-11-20T03:07:52;51.95;;;26.85;;
56999;SDS011;42891;50.006;21.964;2022-11-20T03:11:52;45.90;;;25.40;;
56999;SDS011;42891;50.006;21.964;2022-11-20T03:15:52;50.88;;;28.27;;
56999;SDS011;42891;50.006;21.964;2022-11-20T03:19:53;50.63;;;25.70;;
56999;SDS011;42891;50.006;21.964;2022-11-20T03:23:53;47.30;;;26.00;;
56999;SDS011;42891;50.006;21.964;2022-11-20T03:27:55;49.42;;;24.67;;
56999;SDS011;42891;50.006;21.964;2022-11-20T03:31:55;51.50;;;26.48;;
56999;SDS011;42891;50.006;21.964;2022-11-20T03:36:00;49.80;;;25.47;;
56999;SDS011;42891;50.006;21.964;2022-11-20T03:40:01;48.08;;;25.40;;
56999;SDS011;42891;50.006;21.964;2022-11-20T03:44:02;48.05;;;25.92;;
56999;SDS011;42891;50.006;21.964;2022-11-20T03:48:03;48.90;;;24.58;;
56999;SDS011;42891;50.006;21.964;2022-11-20T03:52:04;45.88;;;24.88;;
56999;SDS011;42891;50.006;21.964;2022-11-20T03:56:04;49.70;;;25.58;;
56999;SDS011;42891;50.006;21.964;2022-11-20T04:00:06;48.45;;;25.85;;
56999;SDS011;42891;50.006;21.964;2022-11-20T04:04:06;49.78;;;24.73;;
56999;SDS011;42891;50.006;21.964;2022-11-20T04:08:07;48.13;;;24.98;;
56999;SDS011;42891;50.006;21.964;2022-11-20T04:12:07;40.85;;;23.25;;
56999;SDS011;42891;50.006;21.964;2022-11-20T04:16:08;49.80;;;26.05;;
56999;SDS011;42891;50.006;21.964;2022-11-20T04:20:09;50.42;;;26.08;;
56999;SDS011;42891;50.006;21.964;2022-11-20T04:24:09;50.67;;;27.85;;
56999;SDS011;42891;50.006;21.964;2022-11-20T04:28:10;56.20;;;27.90;;
56999;SDS011;42891;50.006;21.964;2022-11-20T04:32:10;47.73;;;25.87;;
56999;SDS011;42891;50.006;21.964;2022-11-20T04:36:14;53.22;;;27.67;;
56999;SDS011;42891;50.006;21.964;2022-11-20T04:40:19;58.75;;;29.60;;
56999;SDS011;42891;50.006;21.964;2022-11-20T04:44:19;51.13;;;27.92;;
56999;SDS011;42891;50.006;21.964;2022-11-20T04:48:19;58.42;;;29.60;;
56999;SDS011;42891;50.006;21.964;2022-11-20T04:52:20;54.60;;;28.85;;
56999;SDS011;42891;50.006;21.964;2022-11-20T04:56:20;53.78;;;27.60;;
56999;SDS011;42891;50.006;21.964;2022-11-20T05:00:20;56.42;;;29.38;;
56999;SDS011;42891;50.006;21.964;2022-11-20T05:04:21;58.67;;;29.02;;
56999;SDS011;42891;50.006;21.964;2022-11-20T05:08:21;58.10;;;29.90;;
56999;SDS011;42891;50.006;21.964;2022-11-20T05:12:21;66.68;;;33.35;;
56999;SDS011;42891;50.006;21.964;2022-11-20T05:16:22;58.33;;;31.40;;
56999;SDS011;42891;50.006;21.964;2022-11-20T05:20:23;70.60;;;34.90;;
56999;SDS011;42891;50.006;21.964;2022-11-20T05:24:24;77.05;;;41.65;;
56999;SDS011;42891;50.006;21.964;2022-11-20T05:28:24;70.97;;;36.45;;
56999;SDS011;42891;50.006;21.964;2022-11-20T05:32:26;73.97;;;36.30;;
56999;SDS011;42891;50.006;21.964;2022-11-20T05:36:26;74.47;;;36.80;;
56999;SDS011;42891;50.006;21.964;2022-11-20T05:40:26;73.00;;;36.53;;
56999;SDS011;42891;50.006;21.964;2022-11-20T05:44:26;78.03;;;35.90;;
56999;SDS011;42891;50.006;21.964;2022-11-20T05:48:27;71.20;;;35.47;;
56999;SDS011;42891;50.006;21.964;2022-11-20T05:52:30;79.10;;;39.05;;
56999;SDS011;42891;50.006;21.964;2022-11-20T05:56:30;83.00;;;39.88;;
56999;SDS011;42891;50.006;21.964;2022-11-20T06:00:31;74.68;;;37.90;;
56999;SDS011;42891;50.006;21.964;2022-11-20T06:04:31;79.00;;;36.67;;
56999;SDS011;42891;50.006;21.964;2022-11-20T06:08:32;78.20;;;37.50;;
56999;SDS011;42891;50.006;21.964;2022-11-20T06:12:32;74.68;;;35.95;;
56999;SDS011;42891;50.006;21.964;2022-11-20T06:16:32;71.05;;;36.58;;
56999;SDS011;42891;50.006;21.964;2022-11-20T06:20:33;74.70;;;37.00;;
56999;SDS011;42891;50.006;21.964;2022-11-20T06:24:33;73.82;;;37.33;;
56999;SDS011;42891;50.006;21.964;2022-11-20T06:28:34;70.65;;;37.42;;
56999;SDS011;42891;50.006;21.964;2022-11-20T06:32:34;73.22;;;35.60;;
56999;SDS011;42891;50.006;21.964;2022-11-20T06:36:34;73.00;;;38.70;;
56999;SDS011;42891;50.006;21.964;2022-11-20T06:40:34;80.50;;;40.50;;
56999;SDS011;42891;50.006;21.964;2022-11-20T06:44:35;94.10;;;45.63;;
56999;SDS011;42891;50.006;21.964;2022-11-20T06:48:35;83.30;;;42.75;;
56999;SDS011;42891;50.006;21.964;2022-11-20T06:52:35;88.45;;;45.55;;
56999;SDS011;42891;50.006;21.964;2022-11-20T06:56:35;89.28;;;45.22;;
56999;SDS011;42891;50.006;21.964;2022-11-20T07:00:36;90.70;;;49.17;;
56999;SDS011;42891;50.006;21.964;2022-11-20T07:04:36;92.72;;;47.25;;
56999;SDS011;42891;50.006;21.964;2022-11-20T07:08:36;92.60;;;46.93;;
56999;SDS011;42891;50.006;21.964;2022-11-20T07:12:37;95.55;;;48.30;;
56999;SDS011;42891;50.006;21.964;2022-11-20T07:16:37;94.93;;;47.37;;
56999;SDS011;42891;50.006;21.964;2022-11-20T07:20:37;99.47;;;48.20;;
56999;SDS011;42891;50.006;21.964;2022-11-20T07:24:37;114.03;;;60.20;;
56999;SDS011;42891;50.006;21.964;2022-11-20T07:28:38;111.43;;;56.93;;
56999;SDS011;42891;50.006;21.964;2022-11-20T07:32:38;112.82;;;57.25;;
56999;SDS011;42891;50.006;21.964;2022-11-20T07:36:39;97.43;;;52.77;;
56999;SDS011;42891;50.006;21.964;2022-11-20T07:40:39;107.63;;;58.05;;
56999;SDS011;42891;50.006;21.964;2022-11-20T07:44:39;111.00;;;55.35;;
56999;SDS011;42891;50.006;21.964;2022-11-20T07:48:40;114.55;;;59.35;;
56999;SDS011;42891;50.006;21.964;2022-11-20T07:52:40;108.53;;;56.85;;
56999;SDS011;42891;50.006;21.964;2022-11-20T07:56:40;122.45;;;62.60;;
56999;SDS011;42891;50.006;21.964;2022-11-20T08:00:40;144.50;;;71.82;;
56999;SDS011;42891;50.006;21.964;2022-11-20T08:04:41;127.07;;;64.72;;
56999;SDS011;42891;50.006;21.964;2022-11-20T08:08:41;118.13;;;61.97;;
56999;SDS011;42891;50.006;21.964;2022-11-20T08:12:45;117.43;;;60.30;;
56999;SDS011;42891;50.006;21.964;2022-11-20T08:17:05;111.18;;;55.47;;
56999;SDS011;42891;50.006;21.964;2022-11-20T08:21:05;113.88;;;58.45;;
56999;SDS011;42891;50.006;21.964;2022-11-20T08:25:06;108.50;;;55.30;;
56999;SDS011;42891;50.006;21.964;2022-11-20T08:29:06;109.88;;;57.65;;
56999;SDS011;42891;50.006;21.964;2022-11-20T08:33:08;118.43;;;62.75;;
56999;SDS011;42891;50.006;21.964;2022-11-20T08:37:08;104.25;;;54.00;;
56999;SDS011;42891;50.006;21.964;2022-11-20T08:41:09;94.25;;;51.92;;
56999;SDS011;42891;50.006;21.964;2022-11-20T08:45:25;105.10;;;50.05;;
56999;SDS011;42891;50.006;21.964;2022-11-20T08:49:25;102.38;;;48.05;;
56999;SDS011;42891;50.006;21.964;2022-11-20T08:53:26;92.65;;;42.83;;
56999;SDS011;42891;50.006;21.964;2022-11-20T08:57:27;89.38;;;42.97;;
56999;SDS011;42891;50.006;21.964;2022-11-20T09:01:27;80.68;;;40.47;;
56999;SDS011;42891;50.006;21.964;2022-11-20T09:05:29;86.72;;;43.70;;
56999;SDS011;42891;50.006;21.964;2022-11-20T09:09:29;65.97;;;35.85;;
56999;SDS011;42891;50.006;21.964;2022-11-20T09:13:30;71.80;;;38.50;;
56999;SDS011;42891;50.006;21.964;2022-11-20T09:17:31;70.75;;;38.78;;
56999;SDS011;42891;50.006;21.964;2022-11-20T09:21:31;73.03;;;39.05;;
56999;SDS011;42891;50.006;21.964;2022-11-20T09:25:31;83.87;;;44.93;;
56999;SDS011;42891;50.006;21.964;2022-11-20T09:29:32;80.70;;;43.50;;
56999;SDS011;42891;50.006;21.964;2022-11-20T09:33:32;86.45;;;43.70;;
56999;SDS011;42891;50.006;21.964;2022-11-20T09:37:33;126.13;;;53.33;;
56999;SDS011;42891;50.006;21.964;2022-11-20T09:45:55;87.78;;;44.80;;
56999;SDS011;42891;50.006;21.964;2022-11-20T09:54:37;89.70;;;49.30;;
56999;SDS011;42891;50.006;21.964;2022-11-20T09:58:44;81.20;;;45.08;;
56999;SDS011;42891;50.006;21.964;2022-11-20T10:02:52;100.28;;;51.90;;
56999;SDS011;42891;50.006;21.964;2022-11-20T10:07:05;105.20;;;55.28;;
56999;SDS011;42891;50.006;21.964;2022-11-20T10:19:37;100.03;;;51.17;;
56999;SDS011;42891;50.006;21.964;2022-11-20T10:32:40;80.55;;;42.97;;
56999;SDS011;42891;50.006;21.964;2022-11-20T10:36:55;77.13;;;42.38;;
56999;SDS011;42891;50.006;21.964;2022-11-20T10:41:00;76.22;;;39.85;;
56999;SDS011;42891;50.006;21.964;2022-11-20T10:49:24;71.47;;;39.63;;
56999;SDS011;42891;50.006;21.964;2022-11-20T10:53:33;69.88;;;39.00;;
56999;SDS011;42891;50.006;21.964;2022-11-20T10:57:57;67.93;;;37.90;;
56999;SDS011;42891;50.006;21.964;2022-11-20T11:02:17;72.35;;;39.20;;
56999;SDS011;42891;50.006;21.964;2022-11-20T11:06:32;97.40;;;48.45;;
56999;SDS011;42891;50.006;21.964;2022-11-20T11:15:01;94.35;;;47.13;;
56999;SDS011;42891;50.006;21.964;2022-11-20T11:19:13;78.15;;;42.17;;
56999;SDS011;42891;50.006;21.964;2022-11-20T11:23:22;66.30;;;36.35;;
56999;SDS011;42891;50.006;21.964;2022-11-20T11:27:29;64.05;;;36.72;;
56999;SDS011;42891;50.006;21.964;2022-11-20T11:31:33;51.95;;;31.58;;
56999;SDS011;42891;50.006;21.964;2022-11-20T11:35:38;53.70;;;32.22;;
56999;SDS011;42891;50.006;21.964;2022-11-20T11:39:44;55.42;;;33.80;;
56999;SDS011;42891;50.006;21.964;2022-11-20T11:43:53;55.90;;;35.55;;
56999;SDS011;42891;50.006;21.964;2022-11-20T11:48:14;59.35;;;34.78;;
56999;SDS011;42891;50.006;21.964;2022-11-20T11:52:18;61.22;;;37.75;;
56999;SDS011;42891;50.006;21.964;2022-11-20T11:56:33;55.03;;;33.70;;
56999;SDS011;42891;50.006;21.964;2022-11-20T12:00:34;62.85;;;37.17;;
56999;SDS011;42891;50.006;21.964;2022-11-20T12:04:40;60.55;;;36.53;;
56999;SDS011;42891;50.006;21.964;2022-11-20T12:08:47;59.78;;;36.45;;
56999;SDS011;42891;50.006;21.964;2022-11-20T12:12:55;50.92;;;33.67;;
56999;SDS011;42891;50.006;21.964;2022-11-20T12:17:02;51.03;;;33.03;;
56999;SDS011;42891;50.006;21.964;2022-11-20T12:25:27;60.85;;;40.35;;
56999;SDS011;42891;50.006;21.964;2022-11-20T12:46:52;70.20;;;42.53;;
56999;SDS011;42891;50.006;21.964;2022-11-20T13:00:21;65.70;;;40.88;;
56999;SDS011;42891;50.006;21.964;2022-11-20T13:08:37;73.15;;;43.95;;
56999;SDS011;42891;50.006;21.964;2022-11-20T13:12:40;74.85;;;44.13;;
56999;SDS011;42891;50.006;21.964;2022-11-20T13:25:25;85.93;;;49.72;;
56999;SDS011;42891;50.006;21.964;2022-11-20T13:29:25;77.18;;;46.33;;
56999;SDS011;42891;50.006;21.964;2022-11-20T13:33:32;74.30;;;44.50;;
56999;SDS011;42891;50.006;21.964;2022-11-20T13:37:36;80.60;;;45.03;;
56999;SDS011;42891;50.006;21.964;2022-11-20T13:41:37;76.82;;;46.17;;
56999;SDS011;42891;50.006;21.964;2022-11-20T13:45:39;85.57;;;47.20;;
56999;SDS011;42891;50.006;21.964;2022-11-20T13:49:39;86.47;;;49.08;;
56999;SDS011;42891;50.006;21.964;2022-11-20T14:02:31;80.05;;;47.08;;
56999;SDS011;42891;50.006;21.964;2022-11-20T14:06:34;78.43;;;44.90;;
56999;SDS011;42891;50.006;21.964;2022-11-20T14:10:41;76.90;;;42.45;;
56999;SDS011;42891;50.006;21.964;2022-11-20T14:14:47;76.90;;;42.80;;
56999;SDS011;42891;50.006;21.964;2022-11-20T14:18:51;82.45;;;44.78;;
56999;SDS011;42891;50.006;21.964;2022-11-20T14:22:53;82.43;;;43.63;;
56999;SDS011;42891;50.006;21.964;2022-11-20T14:26:54;79.72;;;45.67;;
56999;SDS011;42891;50.006;21.964;2022-11-20T14:30:54;87.47;;;49.28;;
56999;SDS011;42891;50.006;21.964;2022-11-20T14:34:57;87.13;;;48.35;;
56999;SDS011;42891;50.006;21.964;2022-11-20T14:39:08;93.57;;;49.70;;
56999;SDS011;42891;50.006;21.964;2022-11-20T14:47:26;96.13;;;50.65;;
56999;SDS011;42891;50.006;21.964;2022-11-20T14:51:35;98.53;;;52.08;;
56999;SDS011;42891;50.006;21.964;2022-11-20T14:55:41;87.65;;;46.25;;
56999;SDS011;42891;50.006;21.964;2022-11-20T14:59:41;94.07;;;51.13;;
56999;SDS011;42891;50.006;21.964;2022-11-20T15:03:41;92.72;;;52.05;;
56999;SDS011;42891;50.006;21.964;2022-11-20T15:07:43;96.72;;;52.70;;
56999;SDS011;42891;50.006;21.964;2022-11-20T15:11:52;83.22;;;45.17;;
56999;SDS011;42891;50.006;21.964;2022-11-20T15:19:54;83.45;;;45.13;;
56999;SDS011;42891;50.006;21.964;2022-11-20T15:23:55;80.28;;;44.15;;
56999;SDS011;42891;50.006;21.964;2022-11-20T15:27:56;78.07;;;43.58;;
56999;SDS011;42891;50.006;21.964;2022-11-20T15:31:57;83.85;;;45.00;;
56999;SDS011;42891;50.006;21.964;2022-11-20T15:35:57;81.67;;;45.03;;
56999;SDS011;42891;50.006;21.964;2022-11-20T15:39:58;82.70;;;43.08;;
56999;SDS011;42891;50.006;21.964;2022-11-20T15:43:58;81.50;;;45.25;;
56999;SDS011;42891;50.006;21.964;2022-11-20T15:47:59;83.22;;;44.47;;
56999;SDS011;42891;50.006;21.964;2022-11-20T15:51:59;86.82;;;48.20;;
56999;SDS011;42891;50.006;21.964;2022-11-20T15:56:00;96.20;;;52.10;;
56999;SDS011;42891;50.006;21.964;2022-11-20T16:00:01;96.22;;;53.60;;
56999;SDS011;42891;50.006;21.964;2022-11-20T16:04:01;95.30;;;52.83;;
56999;SDS011;42891;50.006;21.964;2022-11-20T16:08:02;102.53;;;56.30;;
56999;SDS011;42891;50.006;21.964;2022-11-20T16:12:02;102.97;;;53.38;;
56999;SDS011;42891;50.006;21.964;2022-11-20T16:16:07;92.38;;;50.55;;
56999;SDS011;42891;50.006;21.964;2022-11-20T16:20:17;95.67;;;52.30;;
56999;SDS011;42891;50.006;21.964;2022-11-20T16:24:19;106.03;;;55.55;;
56999;SDS011;42891;50.006;21.964;2022-11-20T16:28:19;112.88;;;57.10;;
56999;SDS011;42891;50.006;21.964;2022-11-20T16:32:19;129.00;;;64.78;;
56999;SDS011;42891;50.006;21.964;2022-11-20T16:36:20;132.18;;;67.65;;
56999;SDS011;42891;50.006;21.964;2022-11-20T16:40:22;133.02;;;67.47;;
56999;SDS011;42891;50.006;21.964;2022-11-20T16:44:23;136.73;;;69.75;;
56999;SDS011;42891;50.006;21.964;2022-11-20T16:48:23;123.10;;;61.67;;
56999;SDS011;42891;50.006;21.964;2022-11-20T16:52:23;134.23;;;67.77;;
56999;SDS011;42891;50.006;21.964;2022-11-20T16:56:24;125.28;;;64.78;;
56999;SDS011;42891;50.006;21.964;2022-11-20T17:00:25;114.60;;;61.35;;
56999;SDS011;42891;50.006;21.964;2022-11-20T17:04:26;128.33;;;68.00;;
56999;SDS011;42891;50.006;21.964;2022-11-20T17:08:27;124.55;;;64.07;;
56999;SDS011;42891;50.006;21.964;2022-11-20T17:12:29;132.55;;;70.65;;
56999;SDS011;42891;50.006;21.964;2022-11-20T17:16:29;131.13;;;69.47;;
56999;SDS011;42891;50.006;21.964;2022-11-20T17:20:30;119.53;;;60.70;;
56999;SDS011;42891;50.006;21.964;2022-11-20T17:24:31;81.22;;;44.20;;
56999;SDS011;42891;50.006;21.964;2022-11-20T17:28:31;67.38;;;38.17;;
56999;SDS011;42891;50.006;21.964;2022-11-20T17:32:32;60.83;;;33.95;;
56999;SDS011;42891;50.006;21.964;2022-11-20T17:36:32;53.57;;;29.63;;
56999;SDS011;42891;50.006;21.964;2022-11-20T17:40:33;49.58;;;27.98;;
56999;SDS011;42891;50.006;21.964;2022-11-20T17:44:33;51.23;;;28.10;;
56999;SDS011;42891;50.006;21.964;2022-11-20T17:48:34;48.70;;;27.90;;
56999;SDS011;42891;50.006;21.964;2022-11-20T17:52:35;51.50;;;28.45;;
56999;SDS011;42891;50.006;21.964;2022-11-20T17:56:35;50.90;;;28.80;;
56999;SDS011;42891;50.006;21.964;2022-11-20T18:00:54;50.20;;;27.70;;
56999;SDS011;42891;50.006;21.964;2022-11-20T18:04:54;48.88;;;27.45;;
56999;SDS011;42891;50.006;21.964;2022-11-20T18:08:57;54.90;;;30.85;;
56999;SDS011;42891;50.006;21.964;2022-11-20T18:12:58;58.70;;;31.85;;
56999;SDS011;42891;50.006;21.964;2022-11-20T18:17:03;59.00;;;33.53;;
56999;SDS011;42891;50.006;21.964;2022-11-20T18:21:05;64.13;;;36.45;;
56999;SDS011;42891;50.006;21.964;2022-11-20T18:25:05;66.57;;;36.85;;
56999;SDS011;42891;50.006;21.964;2022-11-20T18:29:06;73.57;;;40.17;;
56999;SDS011;42891;50.006;21.964;2022-11-20T18:33:06;74.47;;;40.95;;
56999;SDS011;42891;50.006;21.964;2022-11-20T18:37:06;78.68;;;43.65;;
56999;SDS011;42891;50.006;21.964;2022-11-20T18:41:08;77.60;;;42.30;;
56999;SDS011;42891;50.006;21.964;2022-11-20T18:45:29;75.53;;;39.88;;
56999;SDS011;42891;50.006;21.964;2022-11-20T18:49:30;77.25;;;38.30;;
56999;SDS011;42891;50.006;21.964;2022-11-20T18:53:32;82.72;;;41.15;;
56999;SDS011;42891;50.006;21.964;2022-11-20T18:57:39;75.32;;;39.15;;
56999;SDS011;42891;50.006;21.964;2022-11-20T19:01:40;80.38;;;41.83;;
56999;SDS011;42891;50.006;21.964;2022-11-20T19:05:40;81.93;;;40.38;;
56999;SDS011;42891;50.006;21.964;2022-11-20T19:09:41;78.97;;;41.00;;
56999;SDS011;42891;50.006;21.964;2022-11-20T19:13:43;69.20;;;38.45;;
56999;SDS011;42891;50.006;21.964;2022-11-20T19:17:44;74.03;;;38.78;;
56999;SDS011;42891;50.006;21.964;2022-11-20T19:21:44;69.32;;;38.88;;
56999;SDS011;42891;50.006;21.964;2022-11-20T19:25:44;71.38;;;38.40;;
56999;SDS011;42891;50.006;21.964;2022-11-20T19:29:45;66.03;;;36.35;;
56999;SDS011;42891;50.006;21.964;2022-11-20T19:33:45;76.97;;;40.63;;
56999;SDS011;42891;50.006;21.964;2022-11-20T19:37:46;81.00;;;42.45;;
56999;SDS011;42891;50.006;21.964;2022-11-20T19:41:46;81.95;;;40.25;;
56999;SDS011;42891;50.006;21.964;2022-11-20T19:45:46;82.97;;;41.30;;
56999;SDS011;42891;50.006;21.964;2022-11-20T19:49:46;118.17;;;55.17;;
56999;SDS011;42891;50.006;21.964;2022-11-20T19:53:47;115.70;;;60.53;;
56999;SDS011;42891;50.006;21.964;2022-11-20T19:57:47;94.40;;;49.53;;
56999;SDS011;42891;50.006;21.964;2022-11-20T20:01:48;94.13;;;48.47;;
56999;SDS011;42891;50.006;21.964;2022-11-20T20:05:48;126.33;;;56.03;;
56999;SDS011;42891;50.006;21.964;2022-11-20T20:09:48;109.88;;;50.30;;
56999;SDS011;42891;50.006;21.964;2022-11-20T20:13:48;121.63;;;54.63;;
56999;SDS011;42891;50.006;21.964;2022-11-20T20:17:52;144.70;;;60.95;;
56999;SDS011;42891;50.006;21.964;2022-11-20T20:21:52;146.80;;;59.35;;
56999;SDS011;42891;50.006;21.964;2022-11-20T20:25:52;142.50;;;58.83;;
56999;SDS011;42891;50.006;21.964;2022-11-20T20:29:52;134.30;;;57.17;;
56999;SDS011;42891;50.006;21.964;2022-11-20T20:33:53;122.82;;;56.45;;
56999;SDS011;42891;50.006;21.964;2022-11-20T20:37:53;122.50;;;53.45;;
56999;SDS011;42891;50.006;21.964;2022-11-20T20:41:53;111.57;;;53.88;;
56999;SDS011;42891;50.006;21.964;2022-11-20T20:45:54;121.50;;;60.33;;
56999;SDS011;42891;50.006;21.964;2022-11-20T20:49:54;127.65;;;60.45;;
56999;SDS011;42891;50.006;21.964;2022-11-20T20:53:54;115.43;;;59.90;;
56999;SDS011;42891;50.006;21.964;2022-11-20T20:57:55;143.87;;;72.07;;
56999;SDS011;42891;50.006;21.964;2022-11-20T21:01:55;140.70;;;74.07;;
56999;SDS011;42891;50.006;21.964;2022-11-20T21:05:55;111.53;;;55.83;;
56999;SDS011;42891;50.006;21.964;2022-11-20T21:09:56;109.22;;;54.25;;
56999;SDS011;42891;50.006;21.964;2022-11-20T21:13:57;103.03;;;52.95;;
56999;SDS011;42891;50.006;21.964;2022-11-20T21:17:57;106.43;;;53.33;;
56999;SDS011;42891;50.006;21.964;2022-11-20T21:21:57;106.20;;;53.03;;
56999;SDS011;42891;50.006;21.964;2022-11-20T21:26:01;99.70;;;52.00;;
56999;SDS011;42891;50.006;21.964;2022-11-20T21:30:04;94.78;;;48.58;;
56999;SDS011;42891;50.006;21.964;2022-11-20T21:34:05;96.00;;;48.40;;
56999;SDS011;42891;50.006;21.964;2022-11-20T21:38:07;92.80;;;47.60;;
56999;SDS011;42891;50.006;21.964;2022-11-20T21:42:07;108.57;;;54.93;;
56999;SDS011;42891;50.006;21.964;2022-11-20T21:46:08;101.53;;;49.50;;
56999;SDS011;42891;50.006;21.964;2022-11-20T21:50:10;98.05;;;50.00;;
56999;SDS011;42891;50.006;21.964;2022-11-20T21:54:10;97.30;;;50.13;;
56999;SDS011;42891;50.006;21.964;2022-11-20T21:58:11;98.35;;;52.03;;
56999;SDS011;42891;50.006;21.964;2022-11-20T22:02:11;105.17;;;56.13;;
56999;SDS011;42891;50.006;21.964;2022-11-20T22:06:11;105.47;;;55.25;;
56999;SDS011;42891;50.006;21.964;2022-11-20T22:10:12;96.30;;;51.73;;
56999;SDS011;42891;50.006;21.964;2022-11-20T22:14:12;100.20;;;52.00;;
56999;SDS011;42891;50.006;21.964;2022-11-20T22:18:22;112.50;;;56.83;;
56999;SDS011;42891;50.006;21.964;2022-11-20T22:22:22;109.37;;;56.83;;
56999;SDS011;42891;50.006;21.964;2022-11-20T22:26:23;107.30;;;56.73;;
56999;SDS011;42891;50.006;21.964;2022-11-20T22:30:25;109.03;;;55.90;;
56999;SDS011;42891;50.006;21.964;2022-11-20T22:34:26;116.55;;;58.38;;
56999;SDS011;42891;50.006;21.964;2022-11-20T22:38:26;167.35;;;77.47;;
56999;SDS011;42891;50.006;21.964;2022-11-20T22:42:27;172.88;;;77.40;;
56999;SDS011;42891;50.006;21.964;2022-11-20T22:46:28;155.97;;;71.63;;
56999;SDS011;42891;50.006;21.964;2022-11-20T22:50:30;135.57;;;63.42;;
56999;SDS011;42891;50.006;21.964;2022-11-20T22:54:31;130.40;;;60.87;;
56999;SDS011;42891;50.006;21.964;2022-11-20T22:58:31;129.00;;;63.70;;
56999;SDS011;42891;50.006;21.964;2022-11-20T23:02:33;125.93;;;59.35;;
56999;SDS011;42891;50.006;21.964;2022-11-20T23:06:33;143.27;;;64.70;;
56999;SDS011;42891;50.006;21.964;2022-11-20T23:10:34;111.47;;;51.17;;
56999;SDS011;42891;50.006;21.964;2022-11-20T23:14:34;90.82;;;47.25;;
56999;SDS011;42891;50.006;21.964;2022-11-20T23:18:35;94.00;;;47.40;;
56999;SDS011;42891;50.006;21.964;2022-11-20T23:22:36;102.75;;;47.00;;
56999;SDS011;42891;50.006;21.964;2022-11-20T23:26:37;110.13;;;56.03;;
56999;SDS011;42891;50.006;21.964;2022-11-20T23:30:38;126.72;;;59.90;;
56999;SDS011;42891;50.006;21.964;2022-11-20T23:34:39;86.75;;;44.38;;
56999;SDS011;42891;50.006;21.964;2022-11-20T23:38:39;100.70;;;48.30;;
56999;SDS011;42891;50.006;21.964;2022-11-20T23:42:40;93.75;;;46.30;;
56999;SDS011;42891;50.006;21.964;2022-11-20T23:47:00;89.07;;;44.80;;
56999;SDS011;42891;50.006;21.964;2022-11-20T23:51:00;82.97;;;43.37;;
56999;SDS011;42891;50.006;21.964;2022-11-20T23:55:02;91.15;;;44.13;;
56999;SDS011;42891;50.006;21.964;2022-11-20T23:59:05;83.10;;;44.78;;
